Time;durP1;ratioP1;P1;durP2;ratioP2;P2;SDS_P1;SDS_P2;PMS_P1;PMS_P2;Temp;Humidity;BMP_temperature;BMP_pressure;BME280_temperature;BME280_humidity;BME280_pressure;Samples;Min_cycle;Max_cycle;Signal;HPM_P1;HPM_P2
2021/08/09 00:02:18;;;;;;;5.00;4.55;;;;;;;19.76;60.29;97199.28;5002722;28;20085;-63
2021/08/09 00:04:44;;;;;;;5.78;4.80;;;;;;;19.73;60.44;97194.53;5004024;28;20099;-64
2021/08/09 00:07:12;;;;;;;5.22;4.82;;;;;;;19.64;60.92;97185.81;5004081;28;20068;-62
2021/08/09 00:09:38;;;;;;;5.43;4.82;;;;;;;19.21;61.14;97158.38;5004274;28;20060;-62
2021/08/09 00:12:05;;;;;;;4.78;4.38;;;;;;;19.07;61.78;97147.34;5002544;28;20053;-62
2021/08/09 00:14:32;;;;;;;4.80;4.38;;;;;;;19.16;61.92;97161.63;5002217;28;20053;-62
2021/08/09 00:16:59;;;;;;;5.05;4.63;;;;;;;18.65;62.48;97122.66;5003698;28;20046;-62
2021/08/09 00:19:26;;;;;;;5.90;5.00;;;;;;;19.17;62.73;97196.16;5004069;28;20083;-62
2021/08/09 00:21:53;;;;;;;5.63;5.13;;;;;;;19.14;62.70;97211.81;5004175;28;20058;-62
2021/08/09 00:24:19;;;;;;;5.95;4.82;;;;;;;18.69;62.38;97131.84;5004164;28;20054;-62
2021/08/09 00:26:46;;;;;;;5.18;4.78;;;;;;;19.10;63.46;97213.88;5003876;28;20053;-62
2021/08/09 00:29:13;;;;;;;5.20;4.70;;;;;;;19.19;63.16;97188.88;5008088;28;20053;-63
2021/08/09 00:31:40;;;;;;;6.45;4.70;;;;;;;18.64;63.15;97118.25;5008390;28;20505;-62
2021/08/09 00:34:06;;;;;;;5.30;4.60;;;;;;;19.14;62.69;97192.16;5010487;28;20091;-63
2021/08/09 00:36:33;;;;;;;7.30;4.53;;;;;;;19.20;62.43;97195.31;5008862;28;20062;-64
2021/08/09 00:39:00;;;;;;;5.22;4.72;;;;;;;19.17;63.01;97191.31;5010989;28;20443;-62
2021/08/09 00:41:27;;;;;;;5.22;4.72;;;;;;;18.71;63.04;97121.00;5008773;28;20065;-65
2021/08/09 00:43:53;;;;;;;7.22;4.53;;;;;;;18.51;63.53;97091.97;5009312;28;20133;-61
2021/08/09 00:46:20;;;;;;;5.28;4.47;;;;;;;18.38;63.79;97093.78;5010334;28;20530;-62
2021/08/09 00:48:47;;;;;;;7.40;4.35;;;;;;;18.78;63.74;97157.38;5010591;28;20147;-62
2021/08/09 00:51:13;;;;;;;6.05;4.78;;;;;;;18.93;63.85;97170.00;5008651;28;20529;-63
2021/08/09 00:53:40;;;;;;;5.35;4.85;;;;;;;18.90;64.06;97182.09;5008583;28;20056;-65
2021/08/09 00:56:07;;;;;;;6.07;4.55;;;;;;;18.73;63.86;97155.03;5009939;28;20061;-62
2021/08/09 00:58:34;;;;;;;7.10;5.07;;;;;;;18.98;63.90;97166.75;5008797;28;20153;-62
2021/08/09 01:01:01;;;;;;;5.43;4.93;;;;;;;18.17;64.07;97065.97;5008498;28;20053;-62
2021/08/09 01:03:28;;;;;;;5.00;4.50;;;;;;;18.84;64.65;97178.13;5008602;28;20444;-64
2021/08/09 01:05:55;;;;;;;5.60;5.20;;;;;;;18.58;65.39;97142.41;5008036;28;20542;-64
2021/08/09 01:08:21;;;;;;;6.03;5.03;;;;;;;18.85;65.01;97173.31;5008562;28;20053;-63
2021/08/09 01:11:14;;;;;;;4.57;4.18;;;;;;;18.96;64.60;97168.34;5008612;28;20061;-63
2021/08/09 01:13:53;;;;;;;4.80;4.50;;;;;;;18.98;64.42;97161.13;5003849;28;20440;-64
2021/08/09 01:16:27;;;;;;;5.32;4.85;;;;;;;18.93;64.24;97163.59;5008323;28;20054;-62
2021/08/09 01:18:59;;;;;;;9.23;4.93;;;;;;;18.56;64.69;97144.81;5009991;28;20066;-62
2021/08/09 01:21:31;;;;;;;6.72;4.90;;;;;;;18.77;65.05;97183.84;5009683;28;20076;-63
2021/08/09 01:24:12;;;;;;;6.68;5.45;;;;;;;18.84;64.75;97177.34;5009906;28;20064;-63
2021/08/09 01:27:03;;;;;;;5.50;5.00;;;;;;;18.58;64.91;97141.59;5008233;28;20057;-63
2021/08/09 01:29:37;;;;;;;5.60;4.75;;;;;;;18.84;64.75;97180.94;5009765;28;20064;-62
2021/08/09 01:32:04;;;;;;;6.75;4.95;;;;;;;18.54;64.37;97119.19;5009277;28;20579;-63
2021/08/09 01:34:31;;;;;;;7.93;4.90;;;;;;;17.90;64.03;96995.00;5009799;28;20050;-65
2021/08/09 01:37:00;;;;;;;6.82;5.10;;;;;;;18.54;64.11;97093.94;5009656;28;20068;-63
2021/08/09 01:39:29;;;;;;;5.55;4.68;;;;;;;19.09;63.73;97166.56;5006182;28;20145;-63
2021/08/09 01:41:56;;;;;;;7.55;5.07;;;;;;;19.01;64.09;97157.47;5006080;28;20061;-63
2021/08/09 01:44:25;;;;;;;5.68;4.57;;;;;;;18.30;63.80;97036.16;5004890;28;20053;-64
2021/08/09 01:46:52;;;;;;;5.40;5.00;;;;;;;18.44;64.10;97041.59;5006433;28;20050;-63
2021/08/09 01:49:19;;;;;;;5.38;4.88;;;;;;;17.88;64.46;96975.00;5005175;28;20063;-62
2021/08/09 01:51:47;;;;;;;6.93;4.75;;;;;;;18.37;64.50;97052.88;5005101;28;20049;-61
2021/08/09 01:54:14;;;;;;;4.88;4.57;;;;;;;18.81;65.29;97150.91;4995104;28;20083;-63
2021/08/09 01:56:42;;;;;;;6.63;5.00;;;;;;;17.82;65.73;97004.72;5006190;28;20524;-64
2021/08/09 01:59:09;;;;;;;5.97;4.47;;;;;;;17.86;66.42;97027.91;5005381;28;20073;-65
2021/08/09 02:01:36;;;;;;;6.93;4.82;;;;;;;18.62;66.64;97151.56;5004479;28;20057;-62
2021/08/09 02:04:03;;;;;;;5.13;4.60;;;;;;;18.34;66.42;97104.19;5004748;28;20513;-62
2021/08/09 02:06:29;;;;;;;6.78;4.75;;;;;;;18.22;66.70;97096.34;5005617;28;20051;-63
2021/08/09 02:08:56;;;;;;;5.07;4.72;;;;;;;18.68;66.51;97157.50;5006005;28;20464;-64
2021/08/09 02:11:29;;;;;;;4.68;4.25;;;;;;;18.04;66.36;97082.53;5004693;28;20053;-63
2021/08/09 02:14:01;;;;;;;5.43;4.93;;;;;;;18.69;66.62;97148.66;5005141;28;20046;-63
2021/08/09 02:16:28;;;;;;;5.60;4.68;;;;;;;18.76;66.60;97151.38;5004333;28;20061;-63
2021/08/09 02:19:44;;;;;;;4.65;4.28;;;;;;;18.55;67.06;97143.25;5004627;28;20061;-62
2021/08/09 02:22:16;;;;;;;5.18;4.65;;;;;;;18.45;66.41;97127.34;5003891;28;20057;-63
2021/08/09 02:24:58;;;;;;;8.63;5.22;;;;;;;17.87;66.42;97035.88;5004119;28;20431;-64
2021/08/09 02:27:29;;;;;;;5.65;4.40;;;;;;;18.40;66.64;97118.59;5005762;28;20504;-63
2021/08/09 02:29:56;;;;;;;5.20;4.68;;;;;;;18.58;66.61;97153.63;5005777;28;20445;-64
2021/08/09 02:32:27;;;;;;;5.88;5.05;;;;;;;18.56;66.08;97211.38;5004743;28;20068;-62
2021/08/09 02:34:55;;;;;;;6.20;5.43;;;;;;;18.42;66.53;97156.22;5004557;28;20061;-63
2021/08/09 02:37:22;;;;;;;6.03;5.43;;;;;;;18.34;66.83;97160.28;5005512;28;20054;-64
2021/08/09 02:39:49;;;;;;;5.97;5.28;;;;;;;18.32;67.21;97150.72;5004121;28;20567;-63
2021/08/09 02:42:16;;;;;;;5.85;5.28;;;;;;;18.35;67.33;97149.88;5005270;28;20498;-64
2021/08/09 02:44:43;;;;;;;5.35;4.85;;;;;;;18.31;67.75;97155.53;5005316;28;20448;-66
2021/08/09 02:47:12;;;;;;;5.93;4.93;;;;;;;18.31;68.40;97155.53;5004063;28;20480;-64
2021/08/09 02:49:45;;;;;;;5.45;4.88;;;;;;;18.05;68.63;97126.16;5003692;28;20054;-63
2021/08/09 02:52:12;;;;;;;7.55;4.97;;;;;;;18.20;68.39;97126.81;5005366;28;20534;-63
2021/08/09 02:54:39;;;;;;;9.27;5.10;;;;;;;18.05;68.23;97114.19;5004233;28;20076;-63
2021/08/09 02:57:07;;;;;;;5.53;4.78;;;;;;;18.39;67.96;97162.69;5005160;28;20545;-64
2021/08/09 02:59:34;;;;;;;5.63;4.47;;;;;;;18.15;68.44;97130.06;5005425;28;20064;-64
2021/08/09 03:02:05;;;;;;;5.10;4.60;;;;;;;17.63;68.87;97069.75;5003654;28;20068;-64
2021/08/09 03:04:35;;;;;;;8.95;5.95;;;;;;;17.93;68.24;97134.31;5004129;28;20058;-63
2021/08/09 03:07:05;;;;;;;8.65;5.82;;;;;;;18.26;68.53;97166.41;5005785;28;20105;-63
2021/08/09 03:09:34;;;;;;;5.50;5.00;;;;;;;17.70;69.27;97080.91;5006076;28;20077;-63
2021/08/09 03:12:02;;;;;;;5.78;5.18;;;;;;;17.48;68.90;97045.91;5003515;28;20517;-63
2021/08/09 03:14:32;;;;;;;5.85;4.85;;;;;;;17.70;69.58;97106.13;5003739;28;20049;-63
2021/08/09 03:17:04;;;;;;;7.28;5.05;;;;;;;17.93;70.56;97165.13;5003184;28;20072;-64
2021/08/09 03:19:31;;;;;;;6.65;5.25;;;;;;;17.65;70.36;97123.38;5004794;28;20627;-63
2021/08/09 03:21:59;;;;;;;5.93;4.80;;;;;;;17.36;70.06;97066.00;5002878;28;20528;-64
2021/08/09 03:24:27;;;;;;;5.68;4.85;;;;;;;17.91;70.72;97164.75;5005020;28;20069;-65
2021/08/09 03:26:54;;;;;;;5.18;4.47;;;;;;;17.86;71.24;97168.81;5003323;28;20080;-64
2021/08/09 03:29:21;;;;;;;5.63;4.68;;;;;;;17.74;71.16;97126.50;5004918;28;20050;-64
2021/08/09 03:31:48;;;;;;;4.57;4.18;;;;;;;17.23;71.62;97078.94;5002744;28;20049;-63
2021/08/09 03:34:14;;;;;;;5.85;5.28;;;;;;;17.71;71.93;97149.75;5002987;28;20062;-64
2021/08/09 03:36:41;;;;;;;6.35;4.95;;;;;;;16.93;71.56;97028.41;5004517;28;20112;-63
2021/08/09 03:39:09;;;;;;;7.93;4.78;;;;;;;17.45;71.06;97116.78;5002742;28;20240;-64
2021/08/09 03:41:36;;;;;;;11.65;5.30;;;;;;;17.10;70.75;97069.44;5002717;28;20064;-63
2021/08/09 03:44:04;;;;;;;7.38;5.80;;;;;;;17.86;69.46;97168.03;5002371;28;20077;-63
2021/08/09 03:46:31;;;;;;;12.20;6.45;;;;;;;17.92;69.41;97205.59;5004285;28;20062;-63
2021/08/09 03:48:58;;;;;;;7.53;6.25;;;;;;;17.24;69.46;97086.91;5004392;28;20054;-65
2021/08/09 03:51:25;;;;;;;7.72;6.43;;;;;;;18.03;68.71;97192.28;5002782;28;20061;-63
2021/08/09 03:53:52;;;;;;;7.95;6.22;;;;;;;18.19;68.47;97200.94;5003994;28;20065;-65
2021/08/09 03:56:18;;;;;;;7.03;6.30;;;;;;;18.29;68.24;97193.63;5004083;28;20046;-62
2021/08/09 03:58:45;;;;;;;8.63;5.60;;;;;;;17.58;67.74;97070.22;5004144;28;20085;-63
2021/08/09 04:01:12;;;;;;;8.55;5.80;;;;;;;18.51;67.73;97209.81;5003522;28;20168;-62
2021/08/09 04:03:39;;;;;;;19.85;8.05;;;;;;;18.54;67.45;97208.97;5003402;28;20080;-64
2021/08/09 04:06:06;;;;;;;17.23;6.22;;;;;;;17.81;67.51;97076.00;5003901;28;20093;-62
2021/08/09 04:08:32;;;;;;;7.93;5.10;;;;;;;18.74;67.32;97201.53;5004104;28;20060;-63
2021/08/09 04:10:59;;;;;;;8.63;6.65;;;;;;;18.78;67.20;97202.28;5003823;28;20492;-65
2021/08/09 04:13:26;;;;;;;19.67;8.52;;;;;;;18.77;67.24;97214.72;5002606;28;20060;-63
2021/08/09 04:15:53;;;;;;;12.57;6.60;;;;;;;18.72;67.62;97209.56;5003568;28;20064;-62
2021/08/09 04:18:19;;;;;;;16.92;6.28;;;;;;;18.67;67.68;97195.22;5002411;28;20054;-62
2021/08/09 04:20:46;;;;;;;12.25;6.03;;;;;;;18.90;67.56;97209.34;5001965;28;20060;-62
2021/08/09 04:23:13;;;;;;;15.15;7.35;;;;;;;18.70;66.71;97147.44;5003745;28;20060;-62
2021/08/09 04:25:39;;;;;;;53.53;17.35;;;;;;;19.24;66.12;97205.25;5001901;28;20049;-62
2021/08/09 04:28:06;;;;;;;13.18;6.80;;;;;;;19.11;65.34;97153.69;5002351;28;20136;-62
2021/08/09 04:30:33;;;;;;;16.60;8.07;;;;;;;19.31;65.34;97182.72;5002326;28;20054;-62
2021/08/09 04:33:04;;;;;;;11.25;5.80;;;;;;;19.58;64.90;97204.38;5003865;28;20417;-62
2021/08/09 04:35:35;;;;;;;8.10;5.13;;;;;;;19.75;64.31;97203.31;5002181;28;20096;-62
2021/08/09 04:38:02;;;;;;;13.38;5.82;;;;;;;19.30;63.60;97155.84;5002024;28;20422;-62
2021/08/09 04:40:30;;;;;;;12.98;5.53;;;;;;;19.82;63.10;97175.88;5002003;28;20076;-64
2021/08/09 04:42:58;;;;;;;11.20;5.38;;;;;;;20.14;62.19;97197.84;5002122;28;20509;-63
2021/08/09 04:45:25;;;;;;;19.48;5.68;;;;;;;20.05;62.32;97172.25;5000031;28;20057;-66
2021/08/09 04:47:52;;;;;;;11.95;5.60;;;;;;;19.41;62.44;97046.91;5003814;28;21153;-64
2021/08/09 04:50:19;;;;;;;12.55;5.97;;;;;;;20.60;62.10;97194.94;5003501;28;20066;-65
2021/08/09 04:52:46;;;;;;;8.27;6.22;;;;;;;20.82;60.80;97196.91;5002997;28;20509;-66
2021/08/09 04:55:13;;;;;;;11.98;5.97;;;;;;;20.60;62.18;97180.88;5002014;28;20058;-66
2021/08/09 04:57:40;;;;;;;8.55;5.80;;;;;;;21.00;61.90;97202.19;5003405;28;20060;-66
2021/08/09 05:00:08;;;;;;;7.93;5.43;;;;;;;21.01;61.90;97206.59;5003554;28;20520;-65
2021/08/09 05:02:36;;;;;;;7.15;5.32;;;;;;;20.75;63.86;97210.34;5003598;28;20054;-65
2021/08/09 05:05:04;;;;;;;6.35;5.75;;;;;;;20.89;64.25;97198.78;5003756;28;20128;-66
2021/08/09 05:07:31;;;;;;;6.25;5.65;;;;;;;20.59;64.51;97156.78;5003533;28;20427;-65
2021/08/09 05:09:58;;;;;;;6.18;5.40;;;;;;;21.12;63.75;97201.50;5003383;28;20050;-66
2021/08/09 05:12:25;;;;;;;7.20;6.32;;;;;;;21.26;62.81;97212.47;5003523;28;20428;-65
2021/08/09 05:14:51;;;;;;;8.57;6.13;;;;;;;20.21;62.07;97046.59;5004238;28;20054;-65
2021/08/09 05:17:18;;;;;;;8.15;5.90;;;;;;;21.03;62.09;97147.81;5005364;28;20064;-66
2021/08/09 05:19:45;;;;;;;6.00;5.15;;;;;;;21.46;60.75;97170.16;5005221;28;20053;-64
2021/08/09 05:22:12;;;;;;;6.55;5.70;;;;;;;21.58;59.74;97156.16;5006772;28;20141;-63
2021/08/09 05:24:40;;;;;;;14.00;6.13;;;;;;;22.11;57.97;97203.59;5005134;28;20058;-65
2021/08/09 05:27:06;;;;;;;10.25;5.50;;;;;;;21.75;58.38;97121.13;5005335;28;20077;-66
2021/08/09 05:29:33;;;;;;;6.75;5.90;;;;;;;21.79;57.82;97138.75;5001793;28;20057;-67
2021/08/09 05:32:00;;;;;;;6.25;5.72;;;;;;;22.66;57.45;97207.41;4997117;28;20058;-66
2021/08/09 05:34:27;;;;;;;7.15;5.68;;;;;;;22.56;57.06;97174.63;5004985;28;20052;-68
2021/08/09 05:36:55;;;;;;;8.70;6.10;;;;;;;23.03;54.86;97209.56;5009323;28;20567;-65
2021/08/09 05:39:21;;;;;;;10.57;6.20;;;;;;;23.03;54.48;97192.63;4988888;28;20066;-66
2021/08/09 05:41:48;;;;;;;7.55;6.28;;;;;;;23.25;54.26;97216.19;4985478;28;20476;-66
2021/08/09 05:44:15;;;;;;;10.00;6.00;;;;;;;22.94;54.02;97139.56;4986920;28;20128;-64
2021/08/09 05:46:43;;;;;;;6.68;6.07;;;;;;;23.63;52.15;97208.56;4985739;28;20076;-66
2021/08/09 05:49:10;;;;;;;7.72;5.60;;;;;;;23.71;51.67;97215.59;5003931;28;20235;-65
2021/08/09 05:51:39;;;;;;;7.40;5.20;;;;;;;23.84;50.98;97236.16;5005884;28;20050;-66
2021/08/09 05:54:08;;;;;;;6.50;5.68;;;;;;;23.92;51.26;97212.03;5004534;28;20086;-66
2021/08/09 05:56:35;;;;;;;6.97;5.95;;;;;;;24.03;51.45;97215.34;5004348;28;20157;-67
2021/08/09 05:59:02;;;;;;;6.50;5.90;;;;;;;23.89;51.69;97171.31;5004021;28;20125;-65
2021/08/09 06:01:28;;;;;;;16.00;6.38;;;;;;;24.39;50.68;97210.06;5004086;28;20057;-65
2021/08/09 06:03:55;;;;;;;7.93;5.90;;;;;;;24.50;50.28;97216.13;5003679;28;20516;-65
2021/08/09 06:06:22;;;;;;;10.23;6.05;;;;;;;24.74;49.88;97206.00;5004063;28;20061;-64
2021/08/09 06:08:49;;;;;;;8.43;6.10;;;;;;;24.93;49.10;97210.56;5004494;28;20057;-65
2021/08/09 06:11:16;;;;;;;7.82;5.85;;;;;;;24.98;48.37;97167.44;5004468;28;20141;-65
2021/08/09 06:13:43;;;;;;;10.25;6.28;;;;;;;25.18;48.30;97207.59;5004269;28;20056;-67
2021/08/09 06:16:10;;;;;;;10.52;6.22;;;;;;;25.43;47.52;97191.69;5004345;28;20054;-65
2021/08/09 06:18:37;;;;;;;7.57;5.65;;;;;;;25.66;46.58;97174.13;5005757;28;20499;-65
2021/08/09 06:21:04;;;;;;;7.15;6.55;;;;;;;25.70;46.72;97195.47;5003911;28;20050;-65
2021/08/09 06:23:32;;;;;;;12.63;6.20;;;;;;;25.74;46.62;97198.13;5005758;28;20148;-66
2021/08/09 06:25:59;;;;;;;6.95;6.32;;;;;;;26.09;46.22;97193.88;5004826;28;20559;-66
2021/08/09 06:28:25;;;;;;;8.10;6.10;;;;;;;26.22;45.69;97160.47;5003996;28;20146;-66
2021/08/09 06:30:52;;;;;;;6.85;6.13;;;;;;;26.77;44.88;97182.00;5003823;28;20535;-66
2021/08/09 06:33:19;;;;;;;11.60;7.30;;;;;;;26.47;44.28;97118.34;5005855;28;20485;-66
2021/08/09 06:35:46;;;;;;;6.72;6.22;;;;;;;27.19;43.07;97185.72;5003847;28;20045;-67
2021/08/09 06:38:12;;;;;;;13.60;6.18;;;;;;;27.24;43.09;97182.25;5005128;28;20045;-63
2021/08/09 06:40:43;;;;;;;7.13;6.25;;;;;;;27.27;42.69;97178.47;5005631;28;20064;-64
2021/08/09 06:43:09;;;;;;;6.50;6.00;;;;;;;27.50;42.60;97166.41;5005960;28;20064;-64
2021/08/09 06:45:44;;;;;;;7.93;6.78;;;;;;;27.63;41.53;97158.44;5003882;28;20062;-66
2021/08/09 06:48:12;;;;;;;6.93;6.18;;;;;;;27.52;42.87;97175.25;5005240;28;20149;-63
2021/08/09 06:50:40;;;;;;;8.48;6.50;;;;;;;27.81;42.36;97164.06;5005077;28;20137;-64
2021/08/09 06:53:08;;;;;;;7.30;6.63;;;;;;;28.17;41.50;97218.03;5004179;28;20050;-64
2021/08/09 06:55:35;;;;;;;6.72;6.18;;;;;;;28.35;41.81;97151.59;5003813;28;20054;-63
2021/08/09 06:58:02;;;;;;;8.82;6.32;;;;;;;28.73;41.05;97165.09;5004203;28;20065;-64
2021/08/09 07:00:29;;;;;;;7.18;6.47;;;;;;;28.63;40.88;97172.19;5005534;28;20062;-64
2021/08/09 07:02:55;;;;;;;7.72;7.13;;;;;;;28.02;42.06;97140.25;5003128;28;20081;-64
2021/08/09 07:05:22;;;;;;;8.98;6.43;;;;;;;28.43;41.03;97169.91;5003462;28;20061;-64
2021/08/09 07:07:50;;;;;;;6.88;6.47;;;;;;;28.08;41.40;97126.91;5003845;28;20440;-63
2021/08/09 07:10:18;;;;;;;8.07;6.82;;;;;;;28.52;41.23;97161.31;5003449;28;20145;-66
2021/08/09 07:12:44;;;;;;;7.07;6.47;;;;;;;28.72;41.29;97174.94;5003603;28;20064;-64
2021/08/09 07:15:12;;;;;;;7.32;6.20;;;;;;;28.83;40.37;97146.66;5003028;28;20100;-65
2021/08/09 07:17:42;;;;;;;7.15;6.45;;;;;;;28.66;39.78;97139.84;5003291;28;20517;-64
2021/08/09 07:20:10;;;;;;;7.38;6.72;;;;;;;28.48;40.25;97131.41;5002812;28;20062;-64
2021/08/09 07:22:44;;;;;;;7.28;6.53;;;;;;;29.19;39.71;97158.53;5003350;28;20148;-64
2021/08/09 07:25:12;;;;;;;7.63;6.93;;;;;;;29.44;39.25;97165.69;5003284;28;20504;-64
2021/08/09 07:27:40;;;;;;;8.25;7.20;;;;;;;29.51;39.04;97156.75;5002931;28;20513;-64
2021/08/09 07:30:10;;;;;;;7.78;6.97;;;;;;;29.33;39.40;97162.66;5003239;28;20057;-63
2021/08/09 07:32:39;;;;;;;7.60;6.88;;;;;;;29.39;38.74;97177.81;5002818;28;20077;-63
2021/08/09 07:35:07;;;;;;;7.80;7.00;;;;;;;29.53;38.68;97159.88;5002981;28;20496;-66
2021/08/09 07:37:33;;;;;;;7.25;6.50;;;;;;;29.63;38.30;97155.66;5003722;28;20440;-64
2021/08/09 07:40:00;;;;;;;8.75;6.63;;;;;;;29.25;38.81;97124.38;5004505;28;20058;-64
2021/08/09 07:42:27;;;;;;;7.75;7.15;;;;;;;29.46;38.90;97157.44;5003909;28;20149;-64
2021/08/09 07:44:55;;;;;;;7.13;6.60;;;;;;;29.87;38.29;97147.75;5004470;28;20060;-66
2021/08/09 07:47:21;;;;;;;7.68;6.93;;;;;;;30.17;37.87;97146.38;5002722;28;20085;-66
2021/08/09 07:49:48;;;;;;;8.77;7.22;;;;;;;30.44;36.97;97154.59;5002456;28;20093;-63
2021/08/09 07:52:15;;;;;;;6.82;6.43;;;;;;;28.13;37.79;96852.75;5002631;28;20057;-63
2021/08/09 07:54:42;;;;;;;6.88;6.45;;;;;;;30.11;37.46;97156.16;5002576;28;20065;-64
2021/08/09 07:57:09;;;;;;;7.53;6.93;;;;;;;30.14;37.16;97138.81;5002286;28;20456;-65
2021/08/09 07:59:36;;;;;;;7.03;6.50;;;;;;;30.24;37.25;97153.78;5002278;28;20596;-64
2021/08/09 08:02:04;;;;;;;7.35;6.80;;;;;;;28.49;37.06;96847.94;5002260;28;20441;-64
2021/08/09 08:04:31;;;;;;;6.90;6.50;;;;;;;30.59;36.53;97146.72;5004017;28;20124;-63
2021/08/09 08:06:59;;;;;;;8.70;6.90;;;;;;;30.49;36.87;97110.97;5002408;28;20602;-62
2021/08/09 08:09:26;;;;;;;7.18;6.68;;;;;;;31.01;35.70;97146.19;5003815;28;20068;-65
2021/08/09 08:11:53;;;;;;;7.35;6.60;;;;;;;30.37;36.22;97072.09;5003477;28;20064;-63
2021/08/09 08:14:20;;;;;;;8.05;7.35;;;;;;;31.24;35.67;97155.78;4995708;28;20046;-64
2021/08/09 08:16:47;;;;;;;7.60;6.75;;;;;;;31.55;35.35;97150.16;4995443;28;20054;-63
2021/08/09 08:19:14;;;;;;;8.90;7.03;;;;;;;31.67;34.42;97148.94;5001874;28;20064;-63
2021/08/09 08:21:41;;;;;;;7.80;7.07;;;;;;;31.87;34.42;97137.38;5002535;28;20186;-64
2021/08/09 08:24:08;;;;;;;7.40;6.72;;;;;;;32.05;33.86;97142.75;5004031;28;20057;-63
2021/08/09 08:26:35;;;;;;;7.80;7.18;;;;;;;32.15;33.89;97135.50;5002735;28;20133;-64
2021/08/09 08:29:02;;;;;;;8.60;7.90;;;;;;;32.42;33.63;97137.78;5002447;28;20057;-63
2021/08/09 08:31:29;;;;;;;7.38;6.97;;;;;;;32.39;33.04;97098.63;5002246;28;20082;-63
2021/08/09 08:33:56;;;;;;;7.35;6.95;;;;;;;32.44;32.94;97106.47;5002179;28;20057;-62
2021/08/09 08:36:23;;;;;;;7.32;6.63;;;;;;;32.28;32.99;97078.47;5004263;28;20057;-68
2021/08/09 08:38:50;;;;;;;7.55;6.65;;;;;;;32.48;33.11;97129.19;5002073;28;20066;-64
2021/08/09 08:41:17;;;;;;;8.05;7.50;;;;;;;32.34;32.51;97096.50;5001994;28;20136;-65
2021/08/09 08:43:45;;;;;;;7.40;6.55;;;;;;;32.71;32.83;97134.50;5002568;28;20058;-65
2021/08/09 08:46:11;;;;;;;7.93;7.32;;;;;;;32.77;32.11;97123.81;5003216;28;20456;-64
2021/08/09 08:48:38;;;;;;;6.63;6.22;;;;;;;32.31;31.73;97045.94;5003768;28;20063;-65
2021/08/09 08:51:22;;;;;;;7.53;6.80;;;;;;;32.35;31.76;97092.34;5005852;28;20057;-64
2021/08/09 08:53:49;;;;;;;7.32;6.80;;;;;;;32.64;31.51;97126.41;5005894;28;20062;-66
2021/08/09 08:56:16;;;;;;;7.78;7.22;;;;;;;32.65;31.44;97127.97;5005850;28;20069;-65
2021/08/09 08:58:42;;;;;;;8.02;6.63;;;;;;;32.61;31.57;97090.16;5005738;28;20140;-65
2021/08/09 09:01:09;;;;;;;7.00;6.60;;;;;;;32.60;32.10;97137.34;5006290;28;20058;-65
2021/08/09 09:03:40;;;;;;;8.55;6.57;;;;;;;32.56;31.42;97084.38;5005443;28;20149;-64
2021/08/09 09:06:08;;;;;;;7.80;7.40;;;;;;;31.81;32.23;97064.91;5005888;28;20054;-64
2021/08/09 09:08:37;;;;;;;9.32;8.63;;;;;;;32.54;31.61;97116.44;5005775;28;20113;-65
2021/08/09 09:11:05;;;;;;;8.82;8.23;;;;;;;32.19;31.44;97044.28;5006839;28;20081;-66
2021/08/09 09:13:32;;;;;;;7.60;7.20;;;;;;;32.85;31.01;97119.16;5006914;28;20062;-66
2021/08/09 09:15:59;;;;;;;7.75;7.07;;;;;;;33.02;30.96;97117.13;5005091;28;20603;-66
2021/08/09 09:18:42;;;;;;;7.82;7.15;;;;;;;33.35;31.02;97117.22;5005508;28;20060;-66
2021/08/09 09:21:27;;;;;;;9.27;8.48;;;;;;;33.53;29.52;97110.97;5006430;28;20070;-64
2021/08/09 09:23:55;;;;;;;7.57;6.78;;;;;;;32.93;29.78;97114.50;5006941;28;20064;-66
2021/08/09 09:26:25;;;;;;;7.90;7.43;;;;;;;32.83;30.31;97058.63;5005087;28;20060;-66
2021/08/09 09:28:52;;;;;;;9.02;7.72;;;;;;;33.53;29.74;97110.97;5006807;28;20408;-67
2021/08/09 09:31:27;;;;;;;8.05;7.22;;;;;;;33.57;28.48;97071.28;5006203;28;20570;-64
2021/08/09 09:33:55;;;;;;;7.72;7.05;;;;;;;34.11;28.73;97103.38;5006602;28;20073;-67
2021/08/09 09:36:22;;;;;;;8.20;7.47;;;;;;;34.47;28.14;97096.50;5004856;28;20081;-66
2021/08/09 09:38:51;;;;;;;8.65;8.07;;;;;;;34.54;28.24;97072.13;5005458;28;20088;-67
2021/08/09 09:41:21;;;;;;;7.18;6.75;;;;;;;34.96;26.46;97091.81;5006000;28;20050;-65
2021/08/09 09:43:49;;;;;;;7.30;6.90;;;;;;;35.03;26.25;97091.28;5005145;28;20058;-65
2021/08/09 09:46:27;;;;;;;7.57;7.10;;;;;;;35.23;26.90;97093.75;5006590;28;20050;-65
2021/08/09 09:49:02;;;;;;;9.20;7.97;;;;;;;35.34;27.17;97096.56;5006509;28;20082;-66
2021/08/09 09:51:39;;;;;;;8.23;7.63;;;;;;;34.21;27.21;97072.25;5004985;28;20452;-65
2021/08/09 09:54:09;;;;;;;7.53;6.95;;;;;;;34.86;27.27;97076.94;5006445;28;20057;-66
2021/08/09 09:56:37;;;;;;;8.35;7.65;;;;;;;35.05;26.95;97042.53;5005685;28;20586;-65
2021/08/09 09:59:07;;;;;;;8.27;7.65;;;;;;;35.28;25.76;97084.28;5006587;28;20066;-66
2021/08/09 10:01:34;;;;;;;7.90;7.22;;;;;;;35.42;25.96;97082.38;5005199;28;20069;-65
2021/08/09 10:04:02;;;;;;;8.40;7.80;;;;;;;34.62;26.27;97076.03;5004567;28;20499;-66
2021/08/09 10:06:30;;;;;;;8.02;7.22;;;;;;;34.38;25.99;97085.22;5006102;28;20453;-66
2021/08/09 10:08:57;;;;;;;7.40;6.88;;;;;;;34.96;25.67;97086.84;5004364;28;20046;-66
2021/08/09 10:11:26;;;;;;;6.85;6.38;;;;;;;35.40;25.41;97079.22;5006693;28;20050;-65
2021/08/09 10:13:54;;;;;;;8.32;7.78;;;;;;;34.82;25.99;96954.72;5004771;28;20072;-64
2021/08/09 10:16:21;;;;;;;8.77;8.07;;;;;;;35.27;26.12;97022.19;5004275;28;20054;-66
2021/08/09 10:18:51;;;;;;;8.63;7.85;;;;;;;35.85;25.21;97068.91;5003849;28;20050;-65
2021/08/09 10:21:19;;;;;;;9.10;8.20;;;;;;;36.11;25.12;97069.94;5003934;28;20061;-65
2021/08/09 10:23:49;;;;;;;8.02;7.60;;;;;;;36.34;24.35;97053.97;5004318;28;20915;-66
2021/08/09 10:26:37;;;;;;;8.57;7.97;;;;;;;36.06;24.24;97073.66;5005291;28;20056;-65
2021/08/09 10:29:06;;;;;;;11.20;8.07;;;;;;;36.27;24.02;97076.84;5003764;28;20184;-67
2021/08/09 10:31:40;;;;;;;8.48;7.88;;;;;;;36.58;23.88;97072.56;5005236;28;20505;-66
2021/08/09 10:34:31;;;;;;;9.82;9.15;;;;;;;36.36;24.35;97068.63;5006163;28;20065;-66
2021/08/09 10:37:10;;;;;;;8.60;8.10;;;;;;;36.36;24.35;97067.84;4998225;28;20546;-66
2021/08/09 10:39:45;;;;;;;8.77;8.18;;;;;;;36.72;24.08;97065.56;5004073;28;20064;-65
2021/08/09 10:42:50;;;;;;;8.20;7.60;;;;;;;37.02;23.02;97067.00;5005093;28;20058;-66
2021/08/09 10:45:48;;;;;;;7.57;7.13;;;;;;;37.19;22.90;97061.75;5002671;28;20110;-66
2021/08/09 10:48:45;;;;;;;8.25;7.65;;;;;;;37.54;23.11;97067.28;5000438;28;20073;-67
2021/08/09 10:51:12;;;;;;;9.05;8.45;;;;;;;37.53;22.46;97067.78;5003602;28;20056;-66
2021/08/09 10:53:45;;;;;;;8.52;7.85;;;;;;;37.64;22.15;97067.59;4975347;28;20076;-65
2021/08/09 10:56:47;;;;;;;8.10;7.47;;;;;;;37.72;22.42;97065.66;5005325;28;20531;-66
2021/08/09 10:59:44;;;;;;;8.93;8.07;;;;;;;37.80;21.89;97060.78;4966379;28;20292;-65
2021/08/09 11:02:27;;;;;;;7.18;6.65;;;;;;;37.89;21.93;97057.47;5003566;28;20062;-66
2021/08/09 11:05:13;;;;;;;;;;;;;;;37.45;22.25;97069.78;5004417;28;20057;-67
2021/08/09 11:07:46;;;;;;;8.50;8.02;;;;;;;37.70;21.82;97051.75;5005273;28;19980;-66
2021/08/09 11:10:13;;;;;;;8.05;7.55;;;;;;;37.52;21.83;96999.75;5003006;28;20108;-67
2021/08/09 11:13:00;;;;;;;8.10;7.65;;;;;;;38.03;21.77;97050.38;5003431;28;20144;-66
2021/08/09 11:15:27;;;;;;;7.85;7.28;;;;;;;38.28;22.12;97045.97;5004853;28;20058;-65
2021/08/09 11:17:56;;;;;;;8.85;8.15;;;;;;;38.26;21.27;97044.94;5003183;28;20072;-66
2021/08/09 11:20:25;;;;;;;8.85;8.35;;;;;;;38.40;21.08;97044.38;5003066;28;20061;-66
2021/08/09 11:23:10;;;;;;;9.13;8.25;;;;;;;37.82;20.79;97040.75;5002931;28;20060;-62
2021/08/09 11:25:38;;;;;;;8.27;7.88;;;;;;;37.70;22.20;97043.06;5003008;28;20505;-62
2021/08/09 11:28:06;;;;;;;8.90;8.38;;;;;;;37.84;20.95;97038.88;5003210;28;20054;-65
2021/08/09 11:30:34;;;;;;;8.07;7.47;;;;;;;37.97;21.23;97035.22;5004165;28;20132;-63
2021/08/09 11:33:01;;;;;;;8.55;7.90;;;;;;;38.00;20.85;97053.59;5002828;28;20049;-63
2021/08/09 11:35:28;;;;;;;7.85;7.40;;;;;;;38.21;21.17;97032.13;5004606;28;20065;-63
2021/08/09 11:38:03;;;;;;;8.77;7.30;;;;;;;38.45;21.02;97037.69;5004306;28;20054;-64
2021/08/09 11:40:38;;;;;;;11.63;10.63;;;;;;;38.64;21.07;97038.38;5002751;28;20057;-64
2021/08/09 11:43:06;;;;;;;10.43;9.68;;;;;;;38.13;21.22;97042.06;5004167;28;20054;-65